createdAt,value
2018-06-08T00:01:11.955Z,5.64
2018-06-08T00:07:06.539Z,5.35
2018-06-08T00:13:01.599Z,5.18
2018-06-08T00:18:56.464Z,5.05
2018-06-08T00:24:51.499Z,5.86
2018-06-08T00:30:46.477Z,5.84
2018-06-08T00:42:36.533Z,6.27
2018-06-08T00:48:31.476Z,5.6
2018-06-08T00:54:26.477Z,5.56
2018-06-08T01:06:16.528Z,5.46
2018-06-08T01:18:06.484Z,4.33
2018-06-08T01:24:01.520Z,3.76
2018-06-08T01:29:56.497Z,3.19
2018-06-08T01:35:51.534Z,5.04
2018-06-08T01:41:46.508Z,5.89
2018-06-08T01:47:41.534Z,5.55
2018-06-08T01:53:36.519Z,5.83
2018-06-08T01:59:31.539Z,6.11
2018-06-08T02:05:26.526Z,3.66
2018-06-08T02:11:21.497Z,3.48
2018-06-08T02:17:16.498Z,3.01
2018-06-08T02:23:11.526Z,4.14
2018-06-08T02:29:06.510Z,4.19
2018-06-08T02:35:01.610Z,3.05
2018-06-08T02:40:56.524Z,2.05
2018-06-08T02:46:51.511Z,2.07
2018-06-08T02:52:46.559Z,2.15
2018-06-08T02:58:41.525Z,1.55
2018-06-08T03:04:36.534Z,1.27
2018-06-08T03:10:31.520Z,1.56
2018-06-08T03:16:26.568Z,1.07
2018-06-08T03:22:21.552Z,0.94
2018-06-08T03:28:16.512Z,1.07
2018-06-08T03:34:11.538Z,0.94
2018-06-08T03:40:06.638Z,1.05
2018-06-08T03:46:01.560Z,1.04
2018-06-08T03:51:56.530Z,0.97
2018-06-08T03:57:51.580Z,0.98
2018-06-08T04:03:46.619Z,1.12
2018-06-08T04:09:41.536Z,1.32
2018-06-08T04:15:36.516Z,1.16
2018-06-08T04:21:31.541Z,1.28
2018-06-08T04:27:26.530Z,1.46
2018-06-08T04:33:21.546Z,1.37
2018-06-08T04:39:16.564Z,1.58
2018-06-08T04:45:11.544Z,1.44
2018-06-08T04:51:06.562Z,1.57
2018-06-08T04:57:01.617Z,1.56
2018-06-08T05:02:56.552Z,1.57
2018-06-08T05:08:51.617Z,2.03
2018-06-08T05:14:46.560Z,2.53
2018-06-08T05:20:42.147Z,2.52
2018-06-08T05:26:36.510Z,3.01
2018-06-08T05:32:31.531Z,4.4
2018-06-08T05:38:26.534Z,3.73
2018-06-08T05:44:21.541Z,3.37
2018-06-08T05:50:16.566Z,3.66
2018-06-08T05:56:11.658Z,5.41
2018-06-08T06:02:06.508Z,5.09
2018-06-08T06:08:01.546Z,5.07
2018-06-08T06:13:56.518Z,4.9
2018-06-08T06:19:51.517Z,5.23
2018-06-08T06:25:46.573Z,4.51
2018-06-08T06:31:41.544Z,4.82
2018-06-08T06:37:36.599Z,4.25
2018-06-08T06:43:31.525Z,3.89
2018-06-08T06:49:26.543Z,3.82
2018-06-08T06:55:21.536Z,3.69
2018-06-08T07:01:16.633Z,3.72
2018-06-08T07:07:11.589Z,4.39
2018-06-08T07:13:06.557Z,4.31
2018-06-08T07:19:01.704Z,4.12
2018-06-08T07:24:56.534Z,3.06
2018-06-08T07:30:51.652Z,2.97
2018-06-08T07:36:46.564Z,3.35
2018-06-08T07:42:41.568Z,3.05
2018-06-08T07:48:36.563Z,3.03
2018-06-08T07:54:31.547Z,3.21
2018-06-08T08:00:28.167Z,3.82
2018-06-08T08:06:21.566Z,2.96
2018-06-08T08:12:16.559Z,3.31
2018-06-08T08:18:11.557Z,3.65
2018-06-08T08:24:06.667Z,3.92
2018-06-08T08:30:01.916Z,3.39
2018-06-08T08:35:56.566Z,3.86
2018-06-08T08:41:51.573Z,3.42
2018-06-08T08:47:46.553Z,3.03
2018-06-08T08:53:56.600Z,3.48
2018-06-08T08:59:36.557Z,2.87
2018-06-08T09:05:31.639Z,2.69
2018-06-08T09:11:26.696Z,2.42
2018-06-08T09:17:21.572Z,2.58
2018-06-08T09:23:16.585Z,2.33
2018-06-08T09:29:11.587Z,2.08
2018-06-08T09:35:07.578Z,2.18
2018-06-08T09:41:02.603Z,2.22
2018-06-08T09:46:56.617Z,2.07
2018-06-08T09:52:51.600Z,2.33
2018-06-08T09:58:47.053Z,1.98
2018-06-08T10:04:42.412Z,2.31
2018-06-08T10:10:36.601Z,2.21
2018-06-08T10:16:32.078Z,2.07
2018-06-08T10:22:27.469Z,1.97
2018-06-08T10:28:21.779Z,2.2
2018-06-08T10:34:16.589Z,1.65
2018-06-08T10:40:13.422Z,1.4
2018-06-08T10:46:06.597Z,1.6
2018-06-08T10:52:01.660Z,1.18
2018-06-08T10:57:56.620Z,1
2018-06-08T11:03:53.668Z,1.07
2018-06-08T11:09:46.595Z,1.4
2018-06-08T11:15:41.617Z,1
2018-06-08T11:21:36.684Z,0.92
2018-06-08T11:27:32.164Z,1.06
2018-06-08T11:33:26.673Z,0.97
2018-06-08T11:39:22.154Z,1.13
2018-06-08T11:45:16.934Z,1.21
2018-06-08T11:51:12.293Z,1.6
2018-06-08T11:57:07.086Z,1.71
2018-06-08T12:03:02.255Z,0.92
2018-06-08T12:08:56.678Z,1.5
2018-06-08T12:14:51.653Z,1.21
2018-06-08T12:20:47.138Z,1.11
2018-06-08T12:26:41.899Z,1.17
2018-06-08T12:32:36.699Z,1.42
2018-06-08T12:38:31.951Z,1.47
2018-06-08T12:44:26.732Z,1.54
2018-06-08T12:50:22.331Z,0.93
2018-06-08T12:56:16.673Z,1.09
2018-06-08T13:02:12.258Z,1.39
2018-06-08T13:08:06.728Z,1.38
2018-06-08T13:14:01.703Z,1.03
2018-06-08T13:19:56.658Z,0.96
2018-06-08T13:25:52.241Z,1.09
2018-06-08T13:31:46.716Z,0.8
2018-06-08T13:37:41.692Z,0.9
2018-06-08T13:43:36.722Z,0.86
2018-06-08T13:49:31.740Z,1.19
2018-06-08T13:55:26.738Z,1.33
2018-06-08T14:01:21.764Z,1.15
2018-06-08T14:07:17.269Z,1.19
2018-06-08T14:13:12.054Z,1.1
2018-06-08T14:19:07.741Z,1.31
2018-06-08T14:25:01.820Z,1.1
2018-06-08T14:30:56.710Z,1.13
2018-06-08T14:36:51.841Z,2.51
2018-06-08T14:48:41.773Z,1.98
2018-06-08T14:54:36.720Z,1.67
2018-06-08T15:00:31.961Z,1.71
2018-06-08T15:06:28.539Z,2.48
2018-06-08T15:12:21.712Z,2.09
2018-06-08T15:18:17.793Z,1.93
2018-06-08T15:24:11.768Z,1.71
2018-06-08T15:30:06.772Z,1.6
2018-06-08T15:36:02.293Z,1.77
2018-06-08T15:41:56.893Z,2.17
2018-06-08T15:47:51.730Z,2.41
2018-06-08T15:53:46.805Z,1.55
2018-06-08T15:59:41.753Z,1.59
2018-06-08T16:05:36.792Z,2.5
2018-06-08T16:11:31.942Z,1.7
2018-06-08T16:17:26.791Z,1.66
2018-06-08T16:23:21.770Z,1.92
2018-06-08T16:29:16.906Z,2.43
2018-06-08T16:35:13.523Z,1.99
2018-06-08T16:41:06.767Z,1.92
2018-06-08T16:47:02.500Z,2.04
2018-06-08T16:52:56.810Z,1.96
2018-06-08T16:58:51.793Z,2.3
2018-06-08T17:04:46.814Z,2.1
2018-06-08T17:10:41.802Z,2.07
2018-06-08T17:16:36.774Z,1.95
2018-06-08T17:22:31.870Z,2.45
2018-06-08T17:28:26.904Z,2.68
2018-06-08T17:34:21.777Z,2.32
2018-06-08T17:40:16.800Z,2.2
2018-06-08T17:46:12.291Z,2.16
2018-06-08T17:52:06.796Z,2.77
2018-06-08T17:58:01.773Z,2.22
2018-06-08T18:03:56.782Z,2.25
2018-06-08T18:09:51.793Z,2.77
2018-06-08T18:15:48.289Z,2.52
2018-06-08T18:21:43.345Z,2.4
2018-06-08T18:27:36.805Z,3.1
2018-06-08T18:33:33.154Z,2.44
2018-06-08T18:39:26.793Z,2.87
2018-06-08T18:45:21.807Z,2.41
2018-06-08T18:51:17.460Z,2.71
2018-06-08T18:57:12.469Z,2.69
2018-06-08T19:03:12.332Z,3.32
2018-06-08T19:09:01.928Z,3.63
2018-06-08T19:14:56.858Z,3
2018-06-08T19:20:52.294Z,3.18
2018-06-08T19:26:46.791Z,2.61
2018-06-08T19:32:42.468Z,2.15
2018-06-08T19:38:37.006Z,2.54
2018-06-08T19:44:31.900Z,2.91
2018-06-08T19:50:27.657Z,2.69
2018-06-08T19:56:21.805Z,2.52
2018-06-08T20:02:16.811Z,2.6
2018-06-08T20:08:11.861Z,3.29
2018-06-08T20:14:06.920Z,3.03
2018-06-08T20:20:02.101Z,4.87
2018-06-08T20:31:51.885Z,2.72
2018-06-08T20:37:46.859Z,2.9
2018-06-08T20:43:42.639Z,3.03
2018-06-08T20:49:36.938Z,2.75
2018-06-08T20:55:32.704Z,3.4
2018-06-08T21:01:27.800Z,3.56
2018-06-08T21:07:22.422Z,2.52
2018-06-08T21:13:16.863Z,2.42
2018-06-08T21:19:11.839Z,2.35
2018-06-08T21:25:07.036Z,2.18
2018-06-08T21:31:01.903Z,2.47
2018-06-08T21:36:56.837Z,2.34
2018-06-08T21:42:51.887Z,2.38
2018-06-08T21:48:46.966Z,2.39
2018-06-08T21:54:41.842Z,2.31
2018-06-08T22:00:37.176Z,2.34
2018-06-08T22:06:31.893Z,2.2
2018-06-08T22:12:26.841Z,2.36
2018-06-08T22:18:21.865Z,2.34
2018-06-08T22:24:16.926Z,2.18
2018-06-08T22:30:12.111Z,2.94
2018-06-08T22:36:06.895Z,3.38
2018-06-08T22:42:01.926Z,2.52
2018-06-08T22:47:56.888Z,2.47
2018-06-08T22:53:51.944Z,3.13
2018-06-08T22:59:46.942Z,3.05
2018-06-08T23:05:42.529Z,2.8
2018-06-08T23:11:36.862Z,2.76
2018-06-08T23:17:32.255Z,2.68
2018-06-08T23:23:26.860Z,2.9
2018-06-08T23:29:21.895Z,2.95
2018-06-08T23:35:17.272Z,2.73
2018-06-08T23:41:11.872Z,4.25
2018-06-08T23:47:07.003Z,3.46
2018-06-08T23:53:01.880Z,3.48
2018-06-08T23:58:56.909Z,3.18
